sensor_id;sensor_type;location;lat;lon;timestamp;temperature;humidity
3075;DHT22;1548;51.716;8.748;2022-09-16T00:01:14;12.60;80.20
3075;DHT22;1548;51.716;8.748;2022-09-16T00:03:41;12.60;80.20
3075;DHT22;1548;51.716;8.748;2022-09-16T00:06:16;12.70;80.20
3075;DHT22;1548;51.716;8.748;2022-09-16T00:08:42;12.70;80.30
3075;DHT22;1548;51.716;8.748;2022-09-16T00:11:10;12.60;80.10
3075;DHT22;1548;51.716;8.748;2022-09-16T00:13:36;12.60;80.20
3075;DHT22;1548;51.716;8.748;2022-09-16T00:16:07;12.60;80.10
3075;DHT22;1548;51.716;8.748;2022-09-16T00:18:33;12.50;80.10
3075;DHT22;1548;51.716;8.748;2022-09-16T00:20:58;12.50;80.20
3075;DHT22;1548;51.716;8.748;2022-09-16T00:23:24;12.60;80.20
3075;DHT22;1548;51.716;8.748;2022-09-16T00:25:54;12.50;80.20
3075;DHT22;1548;51.716;8.748;2022-09-16T00:28:21;12.60;80.30
3075;DHT22;1548;51.716;8.748;2022-09-16T00:30:47;12.50;80.20
3075;DHT22;1548;51.716;8.748;2022-09-16T00:33:13;12.60;80.30
3075;DHT22;1548;51.716;8.748;2022-09-16T00:35:39;12.60;80.30
3075;DHT22;1548;51.716;8.748;2022-09-16T00:38:05;12.60;80.30
3075;DHT22;1548;51.716;8.748;2022-09-16T00:40:30;12.60;80.30
3075;DHT22;1548;51.716;8.748;2022-09-16T00:42:56;12.60;80.30
3075;DHT22;1548;51.716;8.748;2022-09-16T00:45:23;12.60;80.30
3075;DHT22;1548;51.716;8.748;2022-09-16T00:47:56;12.60;80.30
3075;DHT22;1548;51.716;8.748;2022-09-16T00:50:39;12.60;80.30
3075;DHT22;1548;51.716;8.748;2022-09-16T00:53:12;12.50;80.20
3075;DHT22;1548;51.716;8.748;2022-09-16T00:55:39;12.50;80.30
3075;DHT22;1548;51.716;8.748;2022-09-16T00:58:21;12.50;80.30
3075;DHT22;1548;51.716;8.748;2022-09-16T01:00:49;12.50;80.20
3075;DHT22;1548;51.716;8.748;2022-09-16T01:03:15;12.50;80.40
3075;DHT22;1548;51.716;8.748;2022-09-16T01:05:41;12.50;80.40
3075;DHT22;1548;51.716;8.748;2022-09-16T01:08:08;12.50;80.30
3075;DHT22;1548;51.716;8.748;2022-09-16T01:10:34;12.50;80.30
3075;DHT22;1548;51.716;8.748;2022-09-16T01:13:05;12.60;80.40
3075;DHT22;1548;51.716;8.748;2022-09-16T01:18:45;12.50;80.20
3075;DHT22;1548;51.716;8.748;2022-09-16T01:21:28;12.50;80.30
3075;DHT22;1548;51.716;8.748;2022-09-16T01:32:39;12.50;80.30
3075;DHT22;1548;51.716;8.748;2022-09-16T01:44:05;12.30;80.30
3075;DHT22;1548;51.716;8.748;2022-09-16T01:49:19;12.20;80.30
3075;DHT22;1548;51.716;8.748;2022-09-16T01:51:52;12.20;80.40
3075;DHT22;1548;51.716;8.748;2022-09-16T01:54:42;12.20;80.30
3075;DHT22;1548;51.716;8.748;2022-09-16T01:57:17;12.20;80.30
3075;DHT22;1548;51.716;8.748;2022-09-16T01:59:55;12.20;80.30
3075;DHT22;1548;51.716;8.748;2022-09-16T02:05:33;12.30;80.50
3075;DHT22;1548;51.716;8.748;2022-09-16T02:08:12;12.30;80.60
3075;DHT22;1548;51.716;8.748;2022-09-16T02:10:57;12.30;80.50
3075;DHT22;1548;51.716;8.748;2022-09-16T02:13:44;12.30;80.60
3075;DHT22;1548;51.716;8.748;2022-09-16T02:16:22;12.30;80.30
3075;DHT22;1548;51.716;8.748;2022-09-16T02:18:54;12.30;80.50
3075;DHT22;1548;51.716;8.748;2022-09-16T02:21:23;12.30;80.40
3075;DHT22;1548;51.716;8.748;2022-09-16T02:23:54;12.30;80.50
3075;DHT22;1548;51.716;8.748;2022-09-16T02:26:26;12.30;80.60
3075;DHT22;1548;51.716;8.748;2022-09-16T02:28:54;12.20;80.50
3075;DHT22;1548;51.716;8.748;2022-09-16T02:31:25;12.20;80.40
3075;DHT22;1548;51.716;8.748;2022-09-16T02:33:56;12.20;80.50
3075;DHT22;1548;51.716;8.748;2022-09-16T02:36:25;12.20;80.50
3075;DHT22;1548;51.716;8.748;2022-09-16T02:39:02;12.20;80.60
3075;DHT22;1548;51.716;8.748;2022-09-16T02:41:29;12.20;80.50
3075;DHT22;1548;51.716;8.748;2022-09-16T02:43:54;12.30;80.60
3075;DHT22;1548;51.716;8.748;2022-09-16T02:52:03;12.30;80.60
3075;DHT22;1548;51.716;8.748;2022-09-16T02:54:20;12.20;80.40
3075;DHT22;1548;51.716;8.748;2022-09-16T02:56:47;12.30;80.50
3075;DHT22;1548;51.716;8.748;2022-09-16T02:59:14;12.30;80.50
3075;DHT22;1548;51.716;8.748;2022-09-16T03:01:43;12.20;80.50
3075;DHT22;1548;51.716;8.748;2022-09-16T03:04:11;12.20;80.50
3075;DHT22;1548;51.716;8.748;2022-09-16T03:06:37;12.20;80.50
3075;DHT22;1548;51.716;8.748;2022-09-16T03:09:06;12.20;80.60
3075;DHT22;1548;51.716;8.748;2022-09-16T03:11:59;12.20;80.50
3075;DHT22;1548;51.716;8.748;2022-09-16T03:22:47;12.10;80.60
3075;DHT22;1548;51.716;8.748;2022-09-16T03:30:30;12.10;80.60
3075;DHT22;1548;51.716;8.748;2022-09-16T03:33:02;12.10;80.60
3075;DHT22;1548;51.716;8.748;2022-09-16T03:35:33;12.00;80.70
3075;DHT22;1548;51.716;8.748;2022-09-16T03:38:02;12.00;80.60
3075;DHT22;1548;51.716;8.748;2022-09-16T03:40:29;11.90;80.70
3075;DHT22;1548;51.716;8.748;2022-09-16T03:42:57;11.90;80.60
3075;DHT22;1548;51.716;8.748;2022-09-16T03:45:23;11.80;80.60
3075;DHT22;1548;51.716;8.748;2022-09-16T03:47:50;11.80;80.70
3075;DHT22;1548;51.716;8.748;2022-09-16T03:50:17;11.70;80.70
3075;DHT22;1548;51.716;8.748;2022-09-16T03:52:43;11.80;80.70
3075;DHT22;1548;51.716;8.748;2022-09-16T03:55:09;11.80;80.80
3075;DHT22;1548;51.716;8.748;2022-09-16T03:57:38;11.70;80.70
3075;DHT22;1548;51.716;8.748;2022-09-16T04:00:05;11.70;80.80
3075;DHT22;1548;51.716;8.748;2022-09-16T04:02:32;11.60;80.70
3075;DHT22;1548;51.716;8.748;2022-09-16T04:04:57;11.60;80.80
3075;DHT22;1548;51.716;8.748;2022-09-16T04:07:23;11.60;80.80
3075;DHT22;1548;51.716;8.748;2022-09-16T04:09:48;11.60;80.80
3075;DHT22;1548;51.716;8.748;2022-09-16T04:12:14;11.60;80.80
3075;DHT22;1548;51.716;8.748;2022-09-16T04:14:40;11.70;80.80
3075;DHT22;1548;51.716;8.748;2022-09-16T04:17:06;11.70;80.80
3075;DHT22;1548;51.716;8.748;2022-09-16T04:19:31;11.70;80.90
3075;DHT22;1548;51.716;8.748;2022-09-16T04:21:57;11.80;80.90
3075;DHT22;1548;51.716;8.748;2022-09-16T04:24:23;11.80;80.90
3075;DHT22;1548;51.716;8.748;2022-09-16T04:26:48;11.80;80.90
3075;DHT22;1548;51.716;8.748;2022-09-16T04:29:14;11.70;80.90
3075;DHT22;1548;51.716;8.748;2022-09-16T04:31:41;11.70;80.80
3075;DHT22;1548;51.716;8.748;2022-09-16T04:34:08;11.70;80.90
3075;DHT22;1548;51.716;8.748;2022-09-16T04:36:36;11.70;80.80
3075;DHT22;1548;51.716;8.748;2022-09-16T04:39:02;11.80;80.80
3075;DHT22;1548;51.716;8.748;2022-09-16T04:41:27;11.70;80.90
3075;DHT22;1548;51.716;8.748;2022-09-16T04:43:55;11.70;80.90
3075;DHT22;1548;51.716;8.748;2022-09-16T04:46:22;11.70;80.80
3075;DHT22;1548;51.716;8.748;2022-09-16T04:48:48;11.80;81.00
3075;DHT22;1548;51.716;8.748;2022-09-16T04:51:15;11.80;80.90
3075;DHT22;1548;51.716;8.748;2022-09-16T04:53:41;11.90;81.00
3075;DHT22;1548;51.716;8.748;2022-09-16T04:58:43;11.80;80.90
3075;DHT22;1548;51.716;8.748;2022-09-16T05:01:12;11.80;80.80
3075;DHT22;1548;51.716;8.748;2022-09-16T05:03:39;11.90;80.90
3075;DHT22;1548;51.716;8.748;2022-09-16T05:06:10;11.80;80.90
3075;DHT22;1548;51.716;8.748;2022-09-16T05:08:37;11.80;80.90
3075;DHT22;1548;51.716;8.748;2022-09-16T05:11:05;11.80;80.90
3075;DHT22;1548;51.716;8.748;2022-09-16T05:13:30;11.90;80.90
3075;DHT22;1548;51.716;8.748;2022-09-16T05:16:12;11.90;80.90
3075;DHT22;1548;51.716;8.748;2022-09-16T05:18:39;11.90;80.90
3075;DHT22;1548;51.716;8.748;2022-09-16T05:21:08;12.00;80.90
3075;DHT22;1548;51.716;8.748;2022-09-16T05:23:34;11.90;81.00
3075;DHT22;1548;51.716;8.748;2022-09-16T05:26:07;11.90;80.90
3075;DHT22;1548;51.716;8.748;2022-09-16T05:28:33;11.90;80.90
3075;DHT22;1548;51.716;8.748;2022-09-16T05:33:33;12.00;80.90
3075;DHT22;1548;51.716;8.748;2022-09-16T05:36:07;11.90;80.90
3075;DHT22;1548;51.716;8.748;2022-09-16T05:38:33;11.90;80.90
3075;DHT22;1548;51.716;8.748;2022-09-16T05:41:02;11.90;80.90
3075;DHT22;1548;51.716;8.748;2022-09-16T05:43:28;12.00;81.00
3075;DHT22;1548;51.716;8.748;2022-09-16T05:45:55;11.90;80.90
3075;DHT22;1548;51.716;8.748;2022-09-16T05:48:22;12.10;80.90
3075;DHT22;1548;51.716;8.748;2022-09-16T05:50:59;12.10;80.90
3075;DHT22;1548;51.716;8.748;2022-09-16T05:53:26;12.10;80.80
3075;DHT22;1548;51.716;8.748;2022-09-16T05:56:06;12.10;80.90
3075;DHT22;1548;51.716;8.748;2022-09-16T05:58:33;12.10;80.80
3075;DHT22;1548;51.716;8.748;2022-09-16T06:01:01;12.20;80.90
3075;DHT22;1548;51.716;8.748;2022-09-16T06:03:27;12.10;80.80
3075;DHT22;1548;51.716;8.748;2022-09-16T06:08:30;12.10;80.80
3075;DHT22;1548;51.716;8.748;2022-09-16T06:10:56;12.10;80.80
3075;DHT22;1548;51.716;8.748;2022-09-16T06:13:24;12.10;80.80
3075;DHT22;1548;51.716;8.748;2022-09-16T06:15:51;12.10;80.80
3075;DHT22;1548;51.716;8.748;2022-09-16T06:18:19;12.10;80.70
3075;DHT22;1548;51.716;8.748;2022-09-16T06:20:45;12.20;80.80
3075;DHT22;1548;51.716;8.748;2022-09-16T06:23:11;12.20;80.90
3075;DHT22;1548;51.716;8.748;2022-09-16T06:25:37;12.20;80.90
3075;DHT22;1548;51.716;8.748;2022-09-16T06:28:03;12.20;80.80
3075;DHT22;1548;51.716;8.748;2022-09-16T06:30:29;12.30;80.90
3075;DHT22;1548;51.716;8.748;2022-09-16T06:32:55;12.20;80.90
3075;DHT22;1548;51.716;8.748;2022-09-16T06:35:20;12.30;80.80
3075;DHT22;1548;51.716;8.748;2022-09-16T06:37:46;12.20;80.60
3075;DHT22;1548;51.716;8.748;2022-09-16T06:40:11;12.20;80.70
3075;DHT22;1548;51.716;8.748;2022-09-16T06:42:37;12.10;80.70
3075;DHT22;1548;51.716;8.748;2022-09-16T06:45:04;12.20;80.80
3075;DHT22;1548;51.716;8.748;2022-09-16T06:47:31;12.30;80.70
3075;DHT22;1548;51.716;8.748;2022-09-16T06:49:58;12.50;80.90
3075;DHT22;1548;51.716;8.748;2022-09-16T06:52:24;12.50;80.70
3075;DHT22;1548;51.716;8.748;2022-09-16T06:54:50;12.50;80.70
3075;DHT22;1548;51.716;8.748;2022-09-16T06:57:16;12.60;80.80
3075;DHT22;1548;51.716;8.748;2022-09-16T06:59:44;12.50;80.60
3075;DHT22;1548;51.716;8.748;2022-09-16T07:02:10;12.50;80.70
3075;DHT22;1548;51.716;8.748;2022-09-16T07:04:37;12.50;80.70
3075;DHT22;1548;51.716;8.748;2022-09-16T07:07:03;12.40;80.80
3075;DHT22;1548;51.716;8.748;2022-09-16T07:09:29;12.50;80.80
3075;DHT22;1548;51.716;8.748;2022-09-16T07:11:55;12.50;80.60
3075;DHT22;1548;51.716;8.748;2022-09-16T07:14:21;12.70;80.60
3075;DHT22;1548;51.716;8.748;2022-09-16T07:16:47;12.70;80.60
3075;DHT22;1548;51.716;8.748;2022-09-16T07:19:12;12.80;80.40
3075;DHT22;1548;51.716;8.748;2022-09-16T07:21:38;12.80;80.40
3075;DHT22;1548;51.716;8.748;2022-09-16T07:24:05;12.80;80.30
3075;DHT22;1548;51.716;8.748;2022-09-16T07:26:33;12.70;80.20
3075;DHT22;1548;51.716;8.748;2022-09-16T07:29:01;12.90;80.40
3075;DHT22;1548;51.716;8.748;2022-09-16T07:31:30;12.90;80.10
3075;DHT22;1548;51.716;8.748;2022-09-16T07:33:57;12.80;80.10
3075;DHT22;1548;51.716;8.748;2022-09-16T07:36:26;12.90;80.10
3075;DHT22;1548;51.716;8.748;2022-09-16T07:38:54;13.00;80.10
3075;DHT22;1548;51.716;8.748;2022-09-16T07:41:23;12.90;80.00
3075;DHT22;1548;51.716;8.748;2022-09-16T07:43:51;12.90;80.00
3075;DHT22;1548;51.716;8.748;2022-09-16T07:46:18;13.00;80.10
3075;DHT22;1548;51.716;8.748;2022-09-16T07:48:45;13.00;80.10
3075;DHT22;1548;51.716;8.748;2022-09-16T07:51:19;12.90;79.90
3075;DHT22;1548;51.716;8.748;2022-09-16T07:53:45;12.80;80.00
3075;DHT22;1548;51.716;8.748;2022-09-16T07:56:16;13.10;80.10
3075;DHT22;1548;51.716;8.748;2022-09-16T07:58:43;13.10;80.00
3075;DHT22;1548;51.716;8.748;2022-09-16T08:01:10;13.10;79.80
3075;DHT22;1548;51.716;8.748;2022-09-16T08:03:38;13.40;79.70
3075;DHT22;1548;51.716;8.748;2022-09-16T08:06:15;13.60;79.90
3075;DHT22;1548;51.716;8.748;2022-09-16T08:08:42;13.50;79.10
3075;DHT22;1548;51.716;8.748;2022-09-16T08:11:08;13.40;79.10
3075;DHT22;1548;51.716;8.748;2022-09-16T08:13:36;13.50;79.10
3075;DHT22;1548;51.716;8.748;2022-09-16T08:16:13;13.70;79.90
3075;DHT22;1548;51.716;8.748;2022-09-16T08:18:39;13.60;78.20
3075;DHT22;1548;51.716;8.748;2022-09-16T08:21:19;13.40;78.70
3075;DHT22;1548;51.716;8.748;2022-09-16T08:23:45;13.30;78.30
3075;DHT22;1548;51.716;8.748;2022-09-16T08:26:12;13.30;78.30
3075;DHT22;1548;51.716;8.748;2022-09-16T08:28:40;13.50;78.50
3075;DHT22;1548;51.716;8.748;2022-09-16T08:31:07;13.70;78.20
3075;DHT22;1548;51.716;8.748;2022-09-16T08:33:33;13.50;78.00
3075;DHT22;1548;51.716;8.748;2022-09-16T08:36:05;13.40;78.00
3075;DHT22;1548;51.716;8.748;2022-09-16T08:38:33;13.20;78.60
3075;DHT22;1548;51.716;8.748;2022-09-16T08:41:24;13.20;78.60
3075;DHT22;1548;51.716;8.748;2022-09-16T08:46:55;13.20;78.40
3075;DHT22;1548;51.716;8.748;2022-09-16T08:54:52;13.30;78.70
3075;DHT22;1548;51.716;8.748;2022-09-16T08:57:26;13.40;78.60
3075;DHT22;1548;51.716;8.748;2022-09-16T09:00:05;13.60;78.30
3075;DHT22;1548;51.716;8.748;2022-09-16T09:02:57;13.60;78.20
3075;DHT22;1548;51.716;8.748;2022-09-16T09:05:53;13.40;78.30
3075;DHT22;1548;51.716;8.748;2022-09-16T09:09:04;13.50;78.20
3075;DHT22;1548;51.716;8.748;2022-09-16T09:17:20;13.90;77.60
3075;DHT22;1548;51.716;8.748;2022-09-16T09:25:28;14.30;77.00
3075;DHT22;1548;51.716;8.748;2022-09-16T09:34:19;14.30;76.10
3075;DHT22;1548;51.716;8.748;2022-09-16T09:36:58;14.20;75.40
3075;DHT22;1548;51.716;8.748;2022-09-16T09:42:28;14.30;75.00
3075;DHT22;1548;51.716;8.748;2022-09-16T09:45:21;14.40;74.60
3075;DHT22;1548;51.716;8.748;2022-09-16T09:48:43;14.50;75.10
3075;DHT22;1548;51.716;8.748;2022-09-16T09:51:06;14.90;73.80
3075;DHT22;1548;51.716;8.748;2022-09-16T09:53:45;14.90;73.10
3075;DHT22;1548;51.716;8.748;2022-09-16T09:56:19;15.20;73.60
3075;DHT22;1548;51.716;8.748;2022-09-16T10:01:34;15.60;72.00
3075;DHT22;1548;51.716;8.748;2022-09-16T10:03:59;15.70;71.60
3075;DHT22;1548;51.716;8.748;2022-09-16T10:06:28;15.50;71.90
3075;DHT22;1548;51.716;8.748;2022-09-16T10:08:56;15.70;72.10
3075;DHT22;1548;51.716;8.748;2022-09-16T10:11:25;15.60;71.50
3075;DHT22;1548;51.716;8.748;2022-09-16T10:14:01;15.20;72.20
3075;DHT22;1548;51.716;8.748;2022-09-16T10:16:36;14.90;72.80
3075;DHT22;1548;51.716;8.748;2022-09-16T10:19:14;14.90;73.00
3075;DHT22;1548;51.716;8.748;2022-09-16T10:21:46;14.90;72.50
3075;DHT22;1548;51.716;8.748;2022-09-16T10:26:52;15.10;71.70
3075;DHT22;1548;51.716;8.748;2022-09-16T10:29:17;15.20;69.90
3075;DHT22;1548;51.716;8.748;2022-09-16T10:31:46;15.30;70.20
3075;DHT22;1548;51.716;8.748;2022-09-16T10:34:28;15.30;70.10
3075;DHT22;1548;51.716;8.748;2022-09-16T10:37:01;15.20;69.00
3075;DHT22;1548;51.716;8.748;2022-09-16T10:39:28;15.10;69.10
3075;DHT22;1548;51.716;8.748;2022-09-16T10:41:54;15.10;69.30
3075;DHT22;1548;51.716;8.748;2022-09-16T10:44:32;15.30;69.80
3075;DHT22;1548;51.716;8.748;2022-09-16T10:47:05;15.50;69.70
3075;DHT22;1548;51.716;8.748;2022-09-16T10:49:39;15.20;70.20
3075;DHT22;1548;51.716;8.748;2022-09-16T10:52:25;14.90;70.70
3075;DHT22;1548;51.716;8.748;2022-09-16T10:54:52;14.80;71.70
3075;DHT22;1548;51.716;8.748;2022-09-16T10:57:30;14.90;71.00
3075;DHT22;1548;51.716;8.748;2022-09-16T11:00:12;15.10;69.50
3075;DHT22;1548;51.716;8.748;2022-09-16T11:02:43;15.30;68.70
3075;DHT22;1548;51.716;8.748;2022-09-16T11:05:27;15.30;67.90
3075;DHT22;1548;51.716;8.748;2022-09-16T11:10:50;15.30;67.50
3075;DHT22;1548;51.716;8.748;2022-09-16T11:35:37;15.90;65.60
3075;DHT22;1548;51.716;8.748;2022-09-16T11:46:51;16.20;64.80
3075;DHT22;1548;51.716;8.748;2022-09-16T11:51:57;16.10;65.90
3075;DHT22;1548;51.716;8.748;2022-09-16T11:57:03;16.10;65.50
3075;DHT22;1548;51.716;8.748;2022-09-16T11:59:43;15.90;65.50
3075;DHT22;1548;51.716;8.748;2022-09-16T12:10:32;16.00;65.50
3075;DHT22;1548;51.716;8.748;2022-09-16T12:13:06;16.40;64.70
3075;DHT22;1548;51.716;8.748;2022-09-16T12:15:46;16.90;64.20
3075;DHT22;1548;51.716;8.748;2022-09-16T12:18:18;16.90;62.90
3075;DHT22;1548;51.716;8.748;2022-09-16T12:20:52;16.80;63.10
3075;DHT22;1548;51.716;8.748;2022-09-16T12:23:23;17.00;62.10
3075;DHT22;1548;51.716;8.748;2022-09-16T12:26:38;17.10;61.90
3075;DHT22;1548;51.716;8.748;2022-09-16T12:29:04;17.00;61.90
3075;DHT22;1548;51.716;8.748;2022-09-16T12:34:42;16.50;62.80
3075;DHT22;1548;51.716;8.748;2022-09-16T12:39:34;16.20;62.80
3075;DHT22;1548;51.716;8.748;2022-09-16T12:42:23;16.10;63.20
3075;DHT22;1548;51.716;8.748;2022-09-16T12:45:01;16.10;63.50
3075;DHT22;1548;51.716;8.748;2022-09-16T12:56:11;16.40;62.80
3075;DHT22;1548;51.716;8.748;2022-09-16T12:58:53;16.60;62.70
3075;DHT22;1548;51.716;8.748;2022-09-16T13:01:25;16.60;62.90
3075;DHT22;1548;51.716;8.748;2022-09-16T13:03:59;16.80;61.70
3075;DHT22;1548;51.716;8.748;2022-09-16T13:06:33;17.00;61.60
3075;DHT22;1548;51.716;8.748;2022-09-16T13:11:58;15.30;68.80
3075;DHT22;1548;51.716;8.748;2022-09-16T13:14:42;15.10;70.00
3075;DHT22;1548;51.716;8.748;2022-09-16T13:17:10;14.80;70.90
3075;DHT22;1548;51.716;8.748;2022-09-16T13:19:51;14.60;71.40
3075;DHT22;1548;51.716;8.748;2022-09-16T13:22:22;14.40;71.60
3075;DHT22;1548;51.716;8.748;2022-09-16T13:24:54;14.10;72.30
3075;DHT22;1548;51.716;8.748;2022-09-16T13:27:30;13.80;74.00
3075;DHT22;1548;51.716;8.748;2022-09-16T13:32:55;13.30;75.40
3075;DHT22;1548;51.716;8.748;2022-09-16T13:35:43;13.00;76.00
3075;DHT22;1548;51.716;8.748;2022-09-16T13:40:57;13.10;77.30
3075;DHT22;1548;51.716;8.748;2022-09-16T13:43:49;13.00;77.60
3075;DHT22;1548;51.716;8.748;2022-09-16T13:46:32;13.00;77.90
3075;DHT22;1548;51.716;8.748;2022-09-16T13:51:38;13.00;77.40
3075;DHT22;1548;51.716;8.748;2022-09-16T13:54:27;13.20;78.00
3075;DHT22;1548;51.716;8.748;2022-09-16T14:02:28;13.30;77.60
3075;DHT22;1548;51.716;8.748;2022-09-16T14:05:25;13.30;77.10
3075;DHT22;1548;51.716;8.748;2022-09-16T14:13:15;14.10;76.50
3075;DHT22;1548;51.716;8.748;2022-09-16T14:16:00;14.40;75.60
3075;DHT22;1548;51.716;8.748;2022-09-16T14:18:29;14.80;75.80
3075;DHT22;1548;51.716;8.748;2022-09-16T14:21:15;15.10;75.20
3075;DHT22;1548;51.716;8.748;2022-09-16T14:23:41;15.00;73.50
3075;DHT22;1548;51.716;8.748;2022-09-16T14:26:33;15.10;73.50
3075;DHT22;1548;51.716;8.748;2022-09-16T14:29:03;15.10;72.10
3075;DHT22;1548;51.716;8.748;2022-09-16T14:31:31;15.10;72.20
3075;DHT22;1548;51.716;8.748;2022-09-16T14:34:03;15.20;72.00
3075;DHT22;1548;51.716;8.748;2022-09-16T14:36:34;15.30;71.20
3075;DHT22;1548;51.716;8.748;2022-09-16T14:39:10;15.30;70.10
3075;DHT22;1548;51.716;8.748;2022-09-16T14:41:41;15.30;69.60
3075;DHT22;1548;51.716;8.748;2022-09-16T14:44:15;15.40;70.30
3075;DHT22;1548;51.716;8.748;2022-09-16T14:49:35;15.50;69.60
3075;DHT22;1548;51.716;8.748;2022-09-16T14:52:01;15.60;68.40
3075;DHT22;1548;51.716;8.748;2022-09-16T14:54:28;15.20;68.60
3075;DHT22;1548;51.716;8.748;2022-09-16T14:59:31;15.50;69.20
3075;DHT22;1548;51.716;8.748;2022-09-16T15:02:26;15.60;69.30
3075;DHT22;1548;51.716;8.748;2022-09-16T15:04:58;15.40;69.20
3075;DHT22;1548;51.716;8.748;2022-09-16T15:07:34;15.70;69.30
3075;DHT22;1548;51.716;8.748;2022-09-16T15:10:22;15.70;68.90
3075;DHT22;1548;51.716;8.748;2022-09-16T15:12:52;15.90;69.30
3075;DHT22;1548;51.716;8.748;2022-09-16T15:15:26;16.10;69.20
3075;DHT22;1548;51.716;8.748;2022-09-16T15:18:11;16.40;69.10
3075;DHT22;1548;51.716;8.748;2022-09-16T15:20:50;16.70;68.40
3075;DHT22;1548;51.716;8.748;2022-09-16T15:23:23;16.80;68.00
3075;DHT22;1548;51.716;8.748;2022-09-16T15:26:08;16.60;66.50
3075;DHT22;1548;51.716;8.748;2022-09-16T15:28:35;16.30;66.30
3075;DHT22;1548;51.716;8.748;2022-09-16T15:31:00;16.00;66.40
3075;DHT22;1548;51.716;8.748;2022-09-16T15:33:34;16.10;66.30
3075;DHT22;1548;51.716;8.748;2022-09-16T15:36:00;16.10;66.30
3075;DHT22;1548;51.716;8.748;2022-09-16T15:38:26;16.00;66.60
3075;DHT22;1548;51.716;8.748;2022-09-16T15:41:09;16.10;67.10
3075;DHT22;1548;51.716;8.748;2022-09-16T15:43:38;15.70;67.20
3075;DHT22;1548;51.716;8.748;2022-09-16T15:46:12;15.60;66.70
3075;DHT22;1548;51.716;8.748;2022-09-16T15:49:00;15.50;67.80
3075;DHT22;1548;51.716;8.748;2022-09-16T15:51:33;15.40;67.60
3075;DHT22;1548;51.716;8.748;2022-09-16T15:54:35;15.10;68.80
3075;DHT22;1548;51.716;8.748;2022-09-16T15:57:55;14.20;73.70
3075;DHT22;1548;51.716;8.748;2022-09-16T16:00:00;13.30;76.00
3075;DHT22;1548;51.716;8.748;2022-09-16T16:02:41;12.70;76.90
3075;DHT22;1548;51.716;8.748;2022-09-16T16:07:53;12.20;78.00
3075;DHT22;1548;51.716;8.748;2022-09-16T16:10:23;12.10;78.40
3075;DHT22;1548;51.716;8.748;2022-09-16T16:12:51;12.10;78.50
3075;DHT22;1548;51.716;8.748;2022-09-16T16:15:22;12.10;78.80
3075;DHT22;1548;51.716;8.748;2022-09-16T16:17:49;12.20;78.70
3075;DHT22;1548;51.716;8.748;2022-09-16T16:20:16;12.20;79.00
3075;DHT22;1548;51.716;8.748;2022-09-16T16:22:42;12.30;79.10
3075;DHT22;1548;51.716;8.748;2022-09-16T16:25:11;12.40;79.10
3075;DHT22;1548;51.716;8.748;2022-09-16T16:27:38;12.50;79.10
3075;DHT22;1548;51.716;8.748;2022-09-16T16:30:04;12.40;79.20
3075;DHT22;1548;51.716;8.748;2022-09-16T16:32:30;12.30;79.30
3075;DHT22;1548;51.716;8.748;2022-09-16T16:34:56;12.30;79.20
3075;DHT22;1548;51.716;8.748;2022-09-16T16:37:24;12.30;79.30
3075;DHT22;1548;51.716;8.748;2022-09-16T16:39:50;12.30;79.30
3075;DHT22;1548;51.716;8.748;2022-09-16T16:42:15;12.10;79.10
3075;DHT22;1548;51.716;8.748;2022-09-16T16:44:41;12.00;79.40
3075;DHT22;1548;51.716;8.748;2022-09-16T16:47:08;11.80;79.70
3075;DHT22;1548;51.716;8.748;2022-09-16T16:49:34;11.70;79.60
3075;DHT22;1548;51.716;8.748;2022-09-16T16:52:02;11.70;79.50
3075;DHT22;1548;51.716;8.748;2022-09-16T16:54:28;11.70;79.70
3075;DHT22;1548;51.716;8.748;2022-09-16T16:56:54;11.70;80.00
3075;DHT22;1548;51.716;8.748;2022-09-16T16:59:21;11.60;80.00
3075;DHT22;1548;51.716;8.748;2022-09-16T17:01:50;11.50;80.00
3075;DHT22;1548;51.716;8.748;2022-09-16T17:04:16;11.50;80.10
3075;DHT22;1548;51.716;8.748;2022-09-16T17:06:42;11.50;80.10
3075;DHT22;1548;51.716;8.748;2022-09-16T17:09:09;11.50;80.30
3075;DHT22;1548;51.716;8.748;2022-09-16T17:11:36;11.50;80.10
3075;DHT22;1548;51.716;8.748;2022-09-16T17:14:04;11.60;80.20
3075;DHT22;1548;51.716;8.748;2022-09-16T17:16:31;11.70;80.30
3075;DHT22;1548;51.716;8.748;2022-09-16T17:18:58;11.60;80.30
3075;DHT22;1548;51.716;8.748;2022-09-16T17:21:27;11.50;80.10
3075;DHT22;1548;51.716;8.748;2022-09-16T17:23:53;11.50;80.40
3075;DHT22;1548;51.716;8.748;2022-09-16T17:26:20;11.40;80.20
3075;DHT22;1548;51.716;8.748;2022-09-16T17:28:47;11.50;80.30
3075;DHT22;1548;51.716;8.748;2022-09-16T17:33:45;11.40;80.20
3075;DHT22;1548;51.716;8.748;2022-09-16T17:36:12;11.50;80.20
3075;DHT22;1548;51.716;8.748;2022-09-16T17:38:38;11.50;80.30
3075;DHT22;1548;51.716;8.748;2022-09-16T17:41:08;11.60;80.40
3075;DHT22;1548;51.716;8.748;2022-09-16T17:43:35;11.60;80.40
3075;DHT22;1548;51.716;8.748;2022-09-16T17:46:03;11.60;80.40
3075;DHT22;1548;51.716;8.748;2022-09-16T17:48:29;11.70;80.70
3075;DHT22;1548;51.716;8.748;2022-09-16T17:50:55;11.70;80.50
3075;DHT22;1548;51.716;8.748;2022-09-16T17:53:22;11.70;80.50
3075;DHT22;1548;51.716;8.748;2022-09-16T17:55:48;11.70;80.60
3075;DHT22;1548;51.716;8.748;2022-09-16T17:58:14;11.80;80.60
3075;DHT22;1548;51.716;8.748;2022-09-16T18:00:41;11.80;80.70
3075;DHT22;1548;51.716;8.748;2022-09-16T18:03:06;11.80;80.60
3075;DHT22;1548;51.716;8.748;2022-09-16T18:05:34;11.80;80.70
3075;DHT22;1548;51.716;8.748;2022-09-16T18:08:00;11.90;80.70
3075;DHT22;1548;51.716;8.748;2022-09-16T18:10:25;11.80;80.70
3075;DHT22;1548;51.716;8.748;2022-09-16T18:12:51;11.90;80.60
3075;DHT22;1548;51.716;8.748;2022-09-16T18:15:17;11.80;80.60
3075;DHT22;1548;51.716;8.748;2022-09-16T18:17:43;11.80;80.70
3075;DHT22;1548;51.716;8.748;2022-09-16T18:20:09;11.90;80.60
3075;DHT22;1548;51.716;8.748;2022-09-16T18:22:36;11.90;80.60
3075;DHT22;1548;51.716;8.748;2022-09-16T18:25:01;11.90;80.70
3075;DHT22;1548;51.716;8.748;2022-09-16T18:27:28;11.90;80.50
3075;DHT22;1548;51.716;8.748;2022-09-16T18:29:54;11.90;80.60
3075;DHT22;1548;51.716;8.748;2022-09-16T18:32:22;11.80;81.00
3075;DHT22;1548;51.716;8.748;2022-09-16T18:34:48;11.80;80.70
3075;DHT22;1548;51.716;8.748;2022-09-16T18:37:14;11.80;81.00
3075;DHT22;1548;51.716;8.748;2022-09-16T18:39:39;11.80;80.60
3075;DHT22;1548;51.716;8.748;2022-09-16T18:42:05;11.80;80.60
3075;DHT22;1548;51.716;8.748;2022-09-16T18:44:31;11.80;80.60
3075;DHT22;1548;51.716;8.748;2022-09-16T18:46:56;11.80;80.50
3075;DHT22;1548;51.716;8.748;2022-09-16T18:49:22;11.80;80.70
3075;DHT22;1548;51.716;8.748;2022-09-16T18:51:51;11.70;80.40
3075;DHT22;1548;51.716;8.748;2022-09-16T18:54:22;11.70;80.60
3075;DHT22;1548;51.716;8.748;2022-09-16T18:56:56;11.80;80.60
3075;DHT22;1548;51.716;8.748;2022-09-16T18:59:26;11.70;80.40
3075;DHT22;1548;51.716;8.748;2022-09-16T19:01:54;11.70;80.50
3075;DHT22;1548;51.716;8.748;2022-09-16T19:04:25;11.70;80.50
3075;DHT22;1548;51.716;8.748;2022-09-16T19:06:54;11.70;80.40
3075;DHT22;1548;51.716;8.748;2022-09-16T19:09:21;11.70;80.30
3075;DHT22;1548;51.716;8.748;2022-09-16T19:11:48;11.70;80.20
3075;DHT22;1548;51.716;8.748;2022-09-16T19:14:14;11.70;80.40
3075;DHT22;1548;51.716;8.748;2022-09-16T19:16:42;11.70;80.10
3075;DHT22;1548;51.716;8.748;2022-09-16T19:19:10;11.60;80.50
3075;DHT22;1548;51.716;8.748;2022-09-16T19:21:36;11.50;80.10
3075;DHT22;1548;51.716;8.748;2022-09-16T19:24:05;11.40;80.20
3075;DHT22;1548;51.716;8.748;2022-09-16T19:26:34;11.30;80.40